Time;durP1;ratioP1;P1;durP2;ratioP2;P2;SDS_P1;SDS_P2;PMS_P1;PMS_P2;Temp;Humidity;BMP_temperature;BMP_pressure;BME280_temperature;BME280_humidity;BME280_pressure;Samples;Min_cycle;Max_cycle;Signal;HPM_P1;HPM_P2
2023/10/05 00:04:41;;;;;;;2.50;1.00;;;;;;;11.00;95.98;99718.70;109626;1283;22291;-59
2023/10/05 00:07:23;;;;;;;2.00;1.00;;;;;;;11.05;96.34;99717.77;109544;1279;99148;-59
2023/10/05 00:09:56;;;;;;;5.70;1.70;;;;;;;11.14;96.24;99715.77;109725;1284;22978;-59
2023/10/05 00:12:27;;;;;;;3.30;1.20;;;;;;;11.20;96.12;99710.39;109640;1280;100961;-60
2023/10/05 00:15:13;;;;;;;3.30;1.50;;;;;;;11.23;96.12;99706.06;109784;1280;22155;-59
2023/10/05 00:17:48;;;;;;;3.30;1.80;;;;;;;11.26;96.14;99702.09;109656;1285;23500;-59
2023/10/05 00:20:25;;;;;;;2.70;1.10;;;;;;;11.30;96.09;99696.45;109650;1280;99169;-59
2023/10/05 00:22:54;;;;;;;3.50;1.40;;;;;;;11.33;96.01;99694.04;109680;1280;22199;-60
2023/10/05 00:25:26;;;;;;;5.40;1.50;;;;;;;11.36;96.00;99686.40;109637;1285;101412;-62
2023/10/05 00:28:04;;;;;;;5.20;1.60;;;;;;;11.35;95.84;99683.64;109753;1285;22284;-60
2023/10/05 00:30:37;;;;;;;3.00;1.30;;;;;;;11.31;96.08;99673.77;109591;1282;99996;-60
2023/10/05 00:33:10;;;;;;;6.90;2.40;;;;;;;11.35;96.03;99666.77;109717;1285;22127;-60
2023/10/05 00:35:42;;;;;;;3.20;1.60;;;;;;;11.39;95.91;99661.48;109738;1279;22243;-60
2023/10/05 00:38:18;;;;;;;2.70;1.20;;;;;;;11.39;95.79;99660.30;109671;1278;100556;-60
2023/10/05 00:40:57;;;;;;;4.40;1.70;;;;;;;11.35;95.74;99660.14;109648;1280;23290;-60
2023/10/05 00:43:27;;;;;;;4.90;1.60;;;;;;;11.31;95.65;99656.70;109671;1280;100011;-60
2023/10/05 00:45:59;;;;;;;2.30;1.40;;;;;;;11.26;95.61;99653.48;109665;1282;23062;-60
2023/10/05 00:49:30;;;;;;;2.70;1.60;;;;;;;11.18;95.64;99651.41;109557;1280;99826;-60
2023/10/05 00:51:30;;;;;;;3.70;1.40;;;;;;;11.18;95.78;99649.88;109589;1283;22333;-60
2023/10/05 00:54:16;;;;;;;3.20;1.20;;;;;;;11.21;95.88;99645.35;109802;1280;23466;-60
2023/10/05 00:56:54;;;;;;;3.60;1.20;;;;;;;11.24;95.83;99643.98;109610;1280;23004;-60
2023/10/05 00:59:24;;;;;;;4.50;1.80;;;;;;;11.22;95.78;99641.63;109636;1280;22160;-60
2023/10/05 01:02:03;;;;;;;5.50;1.60;;;;;;;11.19;95.70;99643.88;109586;1282;99156;-60
2023/10/05 01:04:52;;;;;;;2.10;1.20;;;;;;;11.15;95.63;99643.41;109838;1280;22216;-60
2023/10/05 01:14:59;;;;;;;3.50;1.60;;;;;;;11.06;95.44;99632.21;109781;1280;22403;-60
2023/10/05 01:17:28;;;;;;;3.40;1.50;;;;;;;10.94;95.39;99632.92;109744;1280;22183;-59
2023/10/05 01:20:25;;;;;;;3.00;1.10;;;;;;;10.85;95.58;99628.00;109652;1286;100414;-60
2023/10/05 01:22:54;;;;;;;4.10;1.40;;;;;;;10.76;95.61;99631.23;109807;1280;22860;-60
2023/10/05 01:25:27;;;;;;;2.70;1.00;;;;;;;10.70;95.66;99625.62;109697;1283;99467;-60
2023/10/05 01:27:56;;;;;;;3.00;1.20;;;;;;;10.65;95.69;99622.54;109625;1280;23087;-60
2023/10/05 01:30:25;;;;;;;3.10;1.20;;;;;;;10.62;95.73;99614.88;109660;1287;99900;-60
2023/10/05 01:32:54;;;;;;;4.20;2.30;;;;;;;10.59;95.81;99608.45;109680;1283;22277;-60
2023/10/05 01:35:23;;;;;;;4.60;1.80;;;;;;;10.57;95.99;99607.14;109810;1280;22398;-60
2023/10/05 01:37:52;;;;;;;2.80;1.40;;;;;;;10.57;96.06;99601.19;109566;1277;99284;-60
2023/10/05 01:40:25;;;;;;;2.80;1.60;;;;;;;10.61;96.13;99590.40;109676;1282;23093;-60
2023/10/05 01:43:01;;;;;;;2.70;1.10;;;;;;;10.63;96.11;99577.74;109653;1280;99233;-60
2023/10/05 01:45:33;;;;;;;9.30;1.70;;;;;;;10.67;96.18;99573.18;109605;1280;22287;-60
2023/10/05 01:48:12;;;;;;;5.20;1.80;;;;;;;10.67;96.21;99569.17;109785;1280;24412;-60
2023/10/05 01:50:44;;;;;;;3.80;1.20;;;;;;;10.68;96.42;99567.95;109658;1282;22595;-60
2023/10/05 01:53:16;;;;;;;3.80;1.50;;;;;;;10.73;96.28;99565.04;109766;1280;22392;-60
2023/10/05 01:55:47;;;;;;;4.40;1.60;;;;;;;10.77;96.40;99562.59;109607;1280;99801;-60
2023/10/05 01:58:24;;;;;;;3.40;1.00;;;;;;;10.80;96.38;99562.62;109767;1286;22224;-60
2023/10/05 02:00:54;;;;;;;3.60;1.40;;;;;;;10.81;96.40;99556.83;109510;1280;100049;-59
2023/10/05 02:03:24;;;;;;;3.70;1.40;;;;;;;10.82;96.44;99546.83;109770;1280;22161;-60
2023/10/05 02:05:58;;;;;;;2.20;1.30;;;;;;;10.83;96.57;99542.41;109629;1283;22363;-60
2023/10/05 02:08:33;;;;;;;3.00;1.30;;;;;;;10.84;96.55;99543.42;109545;1280;98981;-60
2023/10/05 02:11:07;;;;;;;2.30;1.10;;;;;;;10.83;96.45;99540.34;109752;1280;22108;-59
2023/10/05 02:13:37;;;;;;;2.30;1.20;;;;;;;10.82;96.60;99534.10;109668;1280;99536;-60
2023/10/05 02:16:12;;;;;;;5.60;1.70;;;;;;;10.85;96.64;99524.42;109752;1280;22145;-60
2023/10/05 02:18:47;;;;;;;2.80;1.20;;;;;;;10.87;96.73;99520.29;109572;1286;100204;-60
2023/10/05 02:21:29;;;;;;;7.20;1.70;;;;;;;10.88;96.68;99523.70;109721;1279;23078;-60
2023/10/05 02:24:17;;;;;;;3.30;1.30;;;;;;;10.88;96.71;99523.55;109665;1280;22659;-60
2023/10/05 02:29:34;;;;;;;3.30;1.10;;;;;;;10.85;96.79;99522.14;109589;1281;22305;-60
2023/10/05 02:32:10;;;;;;;3.40;1.40;;;;;;;10.82;96.71;99520.39;109711;1280;99487;-60
2023/10/05 02:34:59;;;;;;;3.60;1.80;;;;;;;10.75;96.78;99516.20;109852;1280;23069;-61
2023/10/05 02:37:29;;;;;;;2.30;1.20;;;;;;;10.69;96.70;99510.08;109559;1280;99176;-60
2023/10/05 02:40:07;;;;;;;4.40;1.80;;;;;;;10.60;96.98;99500.80;109724;1280;22303;-60
2023/10/05 02:42:39;;;;;;;3.40;1.80;;;;;;;10.55;96.99;99501.75;109514;1279;99895;-60
2023/10/05 02:45:10;;;;;;;7.00;3.00;;;;;;;10.51;97.04;99499.68;109782;1280;23003;-61
2023/10/05 02:47:41;;;;;;;3.20;1.40;;;;;;;10.52;97.10;99492.81;109669;1280;22321;-60
2023/10/05 02:50:14;;;;;;;2.80;1.20;;;;;;;10.52;97.18;99487.60;109597;1280;99668;-60
2023/10/05 02:52:43;;;;;;;5.90;1.80;;;;;;;10.51;97.21;99491.27;109685;1280;22294;-60
2023/10/05 02:55:16;;;;;;;2.80;1.10;;;;;;;10.51;97.32;99484.19;109586;1279;99744;-60
2023/10/05 02:57:46;;;;;;;3.90;1.30;;;;;;;10.50;97.29;99490.30;109769;1280;22337;-60
2023/10/05 03:00:19;;;;;;;4.20;1.80;;;;;;;10.51;97.29;99492.35;109652;1283;22661;-60
2023/10/05 03:02:50;;;;;;;4.00;1.40;;;;;;;10.50;97.32;99487.90;109667;1283;22297;-60
2023/10/05 03:05:19;;;;;;;3.60;1.10;;;;;;;10.50;97.41;99484.21;109820;1279;22288;-60
2023/10/05 03:07:48;;;;;;;3.60;1.40;;;;;;;10.51;97.57;99482.39;109739;1279;99580;-61
2023/10/05 03:10:23;;;;;;;4.40;1.90;;;;;;;10.52;97.55;99479.41;109723;1280;23065;-61
2023/10/05 03:12:53;;;;;;;2.30;1.10;;;;;;;10.54;97.62;99473.59;109700;1280;99348;-60
2023/10/05 03:15:27;;;;;;;3.40;1.60;;;;;;;10.56;97.67;99470.73;109623;1280;22335;-60
2023/10/05 03:17:59;;;;;;;2.90;1.50;;;;;;;10.58;97.72;99458.81;109695;1279;22297;-60
2023/10/05 03:20:30;;;;;;;3.10;1.20;;;;;;;10.60;97.73;99456.94;109667;1277;99988;-60
2023/10/05 03:22:59;;;;;;;5.30;1.90;;;;;;;10.59;97.79;99450.36;109686;1280;22386;-60
2023/10/05 03:25:28;;;;;;;6.10;2.20;;;;;;;10.62;97.89;99445.20;109713;1280;99622;-60
2023/10/05 03:27:56;;;;;;;5.00;2.10;;;;;;;10.64;97.90;99446.29;109754;1280;22386;-60
2023/10/05 03:30:30;;;;;;;5.60;1.40;;;;;;;10.71;98.21;99446.25;109763;1279;99967;-60
2023/10/05 03:33:00;;;;;;;3.30;1.20;;;;;;;10.80;98.24;99442.48;109801;1280;22906;-60
2023/10/05 03:35:33;;;;;;;4.10;1.60;;;;;;;10.89;98.30;99436.09;109840;1280;22225;-60
2023/10/05 03:38:03;;;;;;;7.40;1.70;;;;;;;10.94;98.15;99426.91;109701;1280;99763;-60
2023/10/05 03:40:43;;;;;;;2.30;1.50;;;;;;;10.97;98.08;99425.34;109770;1276;22314;-60
2023/10/05 03:43:13;;;;;;;3.50;1.60;;;;;;;10.97;98.01;99419.24;109727;1283;99154;-60
2023/10/05 03:45:44;;;;;;;7.40;1.90;;;;;;;10.96;97.87;99413.60;109655;1280;22463;-60
2023/10/05 03:48:13;;;;;;;8.20;2.30;;;;;;;10.91;97.90;99412.80;109810;1280;23057;-60
2023/10/05 03:50:41;;;;;;;7.20;2.50;;;;;;;10.89;97.85;99413.27;109735;1280;98982;-60
2023/10/05 03:53:16;;;;;;;3.50;1.30;;;;;;;10.86;98.00;99414.12;109823;1279;22839;-59
2023/10/05 03:55:50;;;;;;;3.80;1.70;;;;;;;10.84;98.02;99416.14;109629;1280;100204;-60
2023/10/05 03:58:22;;;;;;;8.70;2.60;;;;;;;10.83;98.03;99410.80;109806;1280;22802;-60
2023/10/05 04:00:51;;;;;;;2.80;1.60;;;;;;;10.82;98.12;99409.10;109755;1279;99392;-60
2023/10/05 04:03:24;;;;;;;4.10;1.60;;;;;;;10.81;98.07;99399.26;109788;1280;22140;-60
2023/10/05 04:05:53;;;;;;;5.00;1.30;;;;;;;10.80;98.08;99393.73;109723;1280;22410;-60
2023/10/05 04:08:23;;;;;;;6.60;2.00;;;;;;;10.80;98.06;99389.05;109667;1280;99699;-60
2023/10/05 04:10:54;;;;;;;5.70;2.10;;;;;;;10.78;98.09;99388.95;109684;1280;22806;-60
2023/10/05 04:13:26;;;;;;;5.70;1.20;;;;;;;10.76;98.21;99387.36;109731;1280;99111;-60
2023/10/05 04:15:55;;;;;;;3.50;1.50;;;;;;;10.76;98.23;99385.04;109806;1279;23381;-60
2023/10/05 04:18:29;;;;;;;3.80;1.90;;;;;;;10.76;98.22;99377.41;109696;1280;99345;-60
2023/10/05 04:20:58;;;;;;;3.90;1.50;;;;;;;10.76;98.27;99371.69;109798;1279;23435;-60
2023/10/05 04:23:28;;;;;;;4.40;1.50;;;;;;;10.74;98.15;99372.82;109793;1280;22306;-60
2023/10/05 04:25:57;;;;;;;5.90;2.10;;;;;;;10.72;98.21;99372.19;109607;1280;99090;-60
2023/10/05 04:28:33;;;;;;;5.10;1.70;;;;;;;10.71;98.19;99372.10;109783;1279;22843;-60
2023/10/05 04:31:10;;;;;;;4.70;1.80;;;;;;;10.71;98.22;99374.05;109653;1280;99303;-60
2023/10/05 04:33:42;;;;;;;3.70;1.50;;;;;;;10.70;98.20;99364.86;109778;1279;23018;-60
2023/10/05 04:36:13;;;;;;;6.20;1.70;;;;;;;10.69;98.29;99365.95;109792;1279;22753;-60
2023/10/05 04:38:45;;;;;;;4.20;1.30;;;;;;;10.70;98.26;99359.13;109687;1280;99275;-60
2023/10/05 04:41:19;;;;;;;4.50;1.70;;;;;;;10.71;98.31;99359.55;109784;1279;22387;-60
2023/10/05 04:43:48;;;;;;;6.80;1.60;;;;;;;10.74;98.44;99361.34;109725;1280;99666;-60
2023/10/05 04:46:19;;;;;;;2.60;1.20;;;;;;;10.76;98.56;99354.94;109815;1274;22334;-60
2023/10/05 04:49:07;;;;;;;2.60;1.30;;;;;;;10.78;98.39;99353.95;109754;1280;99894;-59
2023/10/05 04:51:38;;;;;;;3.40;1.70;;;;;;;10.79;98.38;99349.20;109841;1279;22308;-60
2023/10/05 04:54:10;;;;;;;4.80;1.50;;;;;;;10.80;98.42;99345.69;109762;1279;22301;-60
2023/10/05 04:56:43;;;;;;;4.90;1.50;;;;;;;10.80;98.64;99339.77;109727;1279;100499;-59
2023/10/05 05:07:09;;;;;;;3.00;1.60;;;;;;;10.86;98.56;99323.73;109775;1279;100348;-60
2023/10/05 05:09:41;;;;;;;3.10;1.60;;;;;;;10.85;98.46;99314.02;109746;1280;22634;-61
2023/10/05 05:12:16;;;;;;;4.90;1.80;;;;;;;10.86;98.36;99308.95;109845;1279;22299;-62
2023/10/05 05:14:47;;;;;;;6.20;2.40;;;;;;;10.87;98.36;99308.90;109707;1273;23273;-60
2023/10/05 05:17:22;;;;;;;5.10;2.70;;;;;;;10.89;98.38;99307.41;109685;1276;22328;-60
2023/10/05 05:19:55;;;;;;;5.00;1.70;;;;;;;10.93;98.49;99311.90;109468;1280;99190;-60
2023/10/05 05:22:26;;;;;;;4.70;2.20;;;;;;;10.95;98.46;99310.55;109481;1276;22422;-60
2023/10/05 05:24:56;;;;;;;4.90;1.80;;;;;;;10.99;98.48;99307.05;109492;1283;101481;-61
2023/10/05 05:27:24;;;;;;;4.40;1.70;;;;;;;11.00;98.41;99301.40;109646;1280;22287;-61
2023/10/05 05:29:52;;;;;;;3.80;2.20;;;;;;;11.00;98.41;99304.52;109347;1280;22777;-62
2023/10/05 05:32:22;;;;;;;3.30;1.40;;;;;;;11.04;98.42;99296.31;109466;1279;100194;-62
2023/10/05 05:34:57;;;;;;;6.90;2.50;;;;;;;11.05;98.40;99292.42;109716;1276;22144;-62
2023/10/05 05:37:29;;;;;;;4.60;1.70;;;;;;;11.06;98.31;99289.42;109524;1282;99616;-64
2023/10/05 05:40:12;;;;;;;3.70;1.50;;;;;;;11.07;98.31;99281.37;109687;1280;22186;-63
2023/10/05 05:43:11;;;;;;;3.80;2.20;;;;;;;11.13;98.33;99276.30;109511;1279;99173;-61
2023/10/05 05:45:58;;;;;;;5.10;1.70;;;;;;;11.16;98.33;99278.73;109844;1279;22318;-63
2023/10/05 05:48:27;;;;;;;;;;;;;;;11.20;98.24;99278.15;109562;1280;102853;-63
2023/10/05 05:50:55;;;;;;;4.10;1.50;;;;;;;11.21;98.21;99282.08;109734;1280;22198;-63
2023/10/05 05:53:24;;;;;;;7.10;2.60;;;;;;;11.23;98.32;99277.80;109845;1280;22944;-64
2023/10/05 05:56:00;;;;;;;3.50;1.30;;;;;;;11.25;98.25;99266.70;109737;1280;99837;-63
2023/10/05 05:58:29;;;;;;;4.60;2.10;;;;;;;11.28;98.17;99266.21;109787;1280;22266;-62
2023/10/05 06:00:57;;;;;;;2.60;1.50;;;;;;;11.28;98.21;99257.83;109741;1279;99341;-62
2023/10/05 06:03:27;;;;;;;3.70;1.70;;;;;;;11.30;98.19;99261.89;109784;1280;22270;-62
2023/10/05 06:05:56;;;;;;;2.90;1.50;;;;;;;11.34;98.30;99260.27;109814;1279;22162;-62
2023/10/05 06:08:24;;;;;;;5.70;2.00;;;;;;;11.39;98.26;99256.34;109697;1280;99241;-64
2023/10/05 06:11:26;;;;;;;4.10;2.10;;;;;;;11.40;98.18;99253.15;109761;1280;22378;-60
2023/10/05 06:13:58;;;;;;;2.30;1.50;;;;;;;11.44;98.28;99251.52;106584;1286;2947412;-61
2023/10/05 06:16:30;;;;;;;3.80;1.60;;;;;;;11.47;98.23;99251.86;108874;1284;22322;-61
2023/10/05 06:18:58;;;;;;;3.50;2.20;;;;;;;11.51;98.21;99246.38;108868;1286;99805;-62
2023/10/05 06:21:27;;;;;;;5.50;2.50;;;;;;;11.54;98.10;99249.55;108917;1286;22924;-61
2023/10/05 06:23:55;;;;;;;4.40;1.60;;;;;;;11.57;98.03;99249.38;108909;1283;22255;-62
2023/10/05 06:26:23;;;;;;;5.10;2.20;;;;;;;11.54;97.83;99245.02;108859;1286;100359;-63
2023/10/05 06:28:52;;;;;;;4.00;2.10;;;;;;;11.58;98.33;99238.84;108946;1286;22367;-61
2023/10/05 06:31:23;;;;;;;5.90;2.00;;;;;;;11.66;98.23;99237.66;109052;1286;100007;-61
2023/10/05 06:33:59;;;;;;;4.30;1.80;;;;;;;11.71;98.23;99235.79;109117;1285;22437;-61
2023/10/05 06:36:29;;;;;;;4.60;2.40;;;;;;;11.77;98.16;99235.06;108635;1286;98342;-60
2023/10/05 06:38:58;;;;;;;6.30;2.20;;;;;;;11.90;98.22;99238.03;109257;1285;22346;-60
2023/10/05 06:41:26;;;;;;;7.70;3.60;;;;;;;11.97;98.03;99236.35;109026;1284;22338;-62
2023/10/05 06:43:54;;;;;;;48.40;27.00;;;;;;;12.08;98.14;99230.98;108847;1286;101075;-61
2023/10/05 06:46:26;;;;;;;29.90;16.20;;;;;;;12.14;97.91;99223.25;108937;1284;22335;-61
2023/10/05 06:48:58;;;;;;;7.10;4.10;;;;;;;12.22;98.00;99214.77;109185;1284;99919;-61
2023/10/05 06:51:34;;;;;;;5.10;2.90;;;;;;;12.25;97.76;99207.93;109268;1284;22339;-61
2023/10/05 06:54:03;;;;;;;3.20;1.70;;;;;;;12.13;97.44;99205.37;109481;1280;23038;-61
2023/10/05 06:56:40;;;;;;;5.00;1.40;;;;;;;11.98;97.58;99208.23;109553;1280;99796;-59
2023/10/05 06:59:49;;;;;;;4.80;2.00;;;;;;;11.84;97.73;99206.97;108937;1283;22328;-60
2023/10/05 07:02:17;;;;;;;4.30;2.70;;;;;;;11.72;97.74;99207.83;108801;1283;99533;-60
2023/10/05 07:04:46;;;;;;;4.50;2.60;;;;;;;11.61;97.92;99205.04;109061;1282;22301;-60
2023/10/05 07:07:15;;;;;;;20.10;10.80;;;;;;;11.52;97.99;99209.77;109028;1283;100198;-62
2023/10/05 07:09:43;;;;;;;7.00;3.20;;;;;;;11.40;98.20;99214.06;108875;1283;22354;-62
2023/10/05 07:12:12;;;;;;;11.30;5.50;;;;;;;11.28;98.14;99215.13;108897;1276;22528;-64
2023/10/05 07:14:41;;;;;;;18.80;9.60;;;;;;;11.19;98.42;99214.61;108967;1279;101368;-63
2023/10/05 07:17:10;;;;;;;36.90;18.20;;;;;;;11.16;98.52;99205.59;109114;1282;22349;-62
2023/10/05 07:19:42;;;;;;;7.60;4.30;;;;;;;11.14;98.68;99203.79;108968;1286;101156;-63
2023/10/05 07:22:10;;;;;;;9.20;4.90;;;;;;;11.07;98.61;99200.54;109150;1283;22216;-60
2023/10/05 07:24:40;;;;;;;5.40;2.90;;;;;;;11.01;98.81;99206.60;109002;1271;99609;-60
2023/10/05 07:27:08;;;;;;;5.40;2.40;;;;;;;10.98;99.02;99207.98;109086;1279;22479;-62
2023/10/05 07:29:36;;;;;;;3.20;1.80;;;;;;;11.01;99.16;99204.34;108911;1283;22847;-63
2023/10/05 07:32:06;;;;;;;4.10;1.90;;;;;;;11.05;99.59;99200.30;108931;1283;100304;-62
2023/10/05 07:34:37;;;;;;;4.60;2.00;;;;;;;11.04;99.23;99206.11;108996;1283;22370;-63
2023/10/05 07:37:10;;;;;;;5.30;2.10;;;;;;;10.95;99.41;99209.89;109204;1280;99892;-58
2023/10/05 07:39:41;;;;;;;4.10;1.80;;;;;;;10.93;99.66;99216.25;109342;1279;22335;-61
2023/10/05 07:42:11;;;;;;;6.10;2.20;;;;;;;10.92;99.98;99211.62;109487;1279;22612;-60
2023/10/05 07:44:43;;;;;;;3.10;1.70;;;;;;;10.95;100.00;99213.19;109364;1280;98765;-66
2023/10/05 07:47:12;;;;;;;4.30;1.80;;;;;;;10.90;100.00;99213.83;109732;1279;22245;-63
2023/10/05 07:49:41;;;;;;;3.00;2.00;;;;;;;10.89;100.00;99216.30;109601;1280;99811;-63
2023/10/05 07:52:11;;;;;;;4.00;1.90;;;;;;;10.89;100.00;99214.78;109711;1276;22320;-62
2023/10/05 07:55:13;;;;;;;6.60;1.90;;;;;;;10.84;100.00;99218.36;109559;1280;99771;-62
2023/10/05 07:58:15;;;;;;;5.50;2.00;;;;;;;10.81;100.00;99217.13;108694;1285;22465;-63
2023/10/05 08:00:48;;;;;;;3.50;2.00;;;;;;;10.80;100.00;99219.80;108862;1286;99629;-61
2023/10/05 08:03:17;;;;;;;5.70;2.30;;;;;;;10.75;100.00;99216.25;108737;1285;22208;-61
2023/10/05 08:05:48;;;;;;;4.30;1.80;;;;;;;10.81;100.00;99218.34;108827;1286;22356;-62
2023/10/05 08:08:17;;;;;;;4.20;1.90;;;;;;;10.86;100.00;99216.00;108661;1286;101786;-62
2023/10/05 08:10:46;;;;;;;3.20;1.90;;;;;;;10.89;100.00;99221.89;108926;1285;22262;-62
2023/10/05 08:13:16;;;;;;;3.90;1.80;;;;;;;10.92;100.00;99213.86;108743;1286;100598;-61
2023/10/05 08:15:46;;;;;;;5.60;1.70;;;;;;;10.95;100.00;99207.42;108906;1285;22205;-62
2023/10/05 08:18:14;;;;;;;3.50;2.00;;;;;;;10.94;100.00;99211.70;108768;1287;22191;-61
2023/10/05 08:20:43;;;;;;;2.70;1.30;;;;;;;11.00;100.00;99209.09;108170;1283;132164;-62
2023/10/05 08:23:12;;;;;;;3.40;1.50;;;;;;;11.00;100.00;99212.05;108254;1286;22951;-60
2023/10/05 08:25:40;;;;;;;2.80;1.20;;;;;;;10.94;100.00;99219.48;108607;1285;100400;-60
2023/10/05 08:28:10;;;;;;;4.30;1.40;;;;;;;10.92;100.00;99223.64;108493;1286;22828;-61
2023/10/05 08:30:45;;;;;;;2.60;1.00;;;;;;;10.88;100.00;99220.90;108642;1285;101423;-60
2023/10/05 08:33:15;;;;;;;2.60;1.50;;;;;;;10.87;100.00;99232.31;108702;1285;23859;-61
2023/10/05 08:35:44;;;;;;;2.50;1.30;;;;;;;10.92;100.00;99233.57;109040;1278;23508;-60
2023/10/05 08:38:16;;;;;;;3.80;1.10;;;;;;;10.95;100.00;99229.91;109605;1280;99850;-60
2023/10/05 08:40:45;;;;;;;2.10;1.60;;;;;;;10.95;100.00;99232.86;109857;1279;22180;-60
2023/10/05 08:43:16;;;;;;;3.90;1.60;;;;;;;10.92;100.00;99236.89;109798;1280;100063;-60
2023/10/05 08:45:50;;;;;;;3.10;1.40;;;;;;;10.89;100.00;99233.23;109824;1280;22355;-60
2023/10/05 08:48:34;;;;;;;2.00;1.10;;;;;;;10.89;100.00;99230.25;109797;1283;22312;-60
2023/10/05 08:51:12;;;;;;;4.30;2.00;;;;;;;10.86;100.00;99230.59;109764;1273;99625;-60
2023/10/05 08:53:57;;;;;;;2.70;1.10;;;;;;;10.85;100.00;99230.29;109887;1279;22321;-63
2023/10/05 08:56:27;;;;;;;1.90;1.10;;;;;;;10.83;100.00;99229.04;109704;1279;99885;-59
2023/10/05 08:58:59;;;;;;;2.30;1.10;;;;;;;10.78;100.00;99236.45;109739;1282;23077;-60
2023/10/05 09:01:33;;;;;;;3.40;1.20;;;;;;;10.79;100.00;99244.23;109714;1271;100348;-60
2023/10/05 09:07:08;;;;;;;2.80;1.00;;;;;;;10.72;100.00;99252.46;109797;1280;22858;-61
2023/10/05 09:09:57;;;;;;;3.10;1.50;;;;;;;10.80;100.00;99254.64;109618;1279;23374;-61
2023/10/05 09:12:41;;;;;;;2.00;1.00;;;;;;;10.87;100.00;99245.89;109794;1280;22894;-61
2023/10/05 09:15:27;;;;;;;2.50;1.30;;;;;;;10.89;100.00;99260.88;109719;1279;99279;-62
2023/10/05 09:18:42;;;;;;;1.50;1.10;;;;;;;10.95;100.00;99260.36;109817;1279;22318;-61
2023/10/05 09:20:51;;;;;;;3.00;1.30;;;;;;;11.03;100.00;99256.52;109721;1279;99832;-61
2023/10/05 09:23:31;;;;;;;2.40;1.20;;;;;;;11.17;100.00;99262.82;109744;1280;22939;-67
2023/10/05 09:26:01;;;;;;;3.40;1.50;;;;;;;11.34;100.00;99262.38;109702;1279;100167;-61
2023/10/05 09:28:51;;;;;;;1.90;1.00;;;;;;;11.40;100.00;99262.67;109805;1283;22338;-61
2023/10/05 09:31:34;;;;;;;2.20;1.00;;;;;;;11.40;100.00;99256.58;109766;1280;99507;-62
2023/10/05 09:34:06;;;;;;;3.40;0.90;;;;;;;11.41;100.00;99258.11;109833;1286;22255;-64
2023/10/05 09:36:39;;;;;;;1.90;0.50;;;;;;;13.57;100.00;99246.67;109807;1280;22332;-66
2023/10/05 09:39:14;;;;;;;2.10;0.90;;;;;;;16.34;100.00;99242.24;109772;1279;99149;-67
2023/10/05 09:41:56;;;;;;;1.10;0.70;;;;;;;18.52;100.00;99247.05;109869;1279;23490;-68
2023/10/05 09:44:28;;;;;;;2.90;0.90;;;;;;;18.92;100.00;99249.33;109765;1280;100647;-66
2023/10/05 09:46:59;;;;;;;2.40;0.80;;;;;;;18.30;100.00;99248.25;109911;1279;22375;-65
2023/10/05 09:49:31;;;;;;;2.30;0.80;;;;;;;18.86;100.00;99250.89;109784;1279;100176;-63
2023/10/05 09:52:00;;;;;;;2.80;0.80;;;;;;;20.96;100.00;99242.42;109898;1280;22371;-67
2023/10/05 09:54:31;;;;;;;2.80;0.70;;;;;;;20.97;100.00;99242.09;109884;1281;22977;-68
2023/10/05 09:57:10;;;;;;;2.20;0.80;;;;;;;19.80;100.00;99242.88;109815;1280;99706;-68
2023/10/05 09:59:44;;;;;;;3.10;0.60;;;;;;;18.78;100.00;99252.52;109904;1280;22995;-65
2023/10/05 10:02:16;;;;;;;1.00;0.40;;;;;;;18.71;100.00;99251.92;109793;1280;100182;-61
2023/10/05 10:04:47;;;;;;;1.30;0.50;;;;;;;18.86;100.00;99251.11;109891;1279;22309;-64
2023/10/05 10:07:22;;;;;;;1.70;0.60;;;;;;;18.80;100.00;99251.33;109809;1279;100076;-66
2023/10/05 10:09:53;;;;;;;1.80;0.50;;;;;;;18.73;100.00;99253.14;109797;1280;22116;-68
2023/10/05 10:12:47;;;;;;;1.20;0.70;;;;;;;18.81;100.00;99252.11;109785;1279;22315;-66
2023/10/05 10:15:34;;;;;;;2.40;0.90;;;;;;;18.38;100.00;99247.36;109769;1280;22317;-67
2023/10/05 10:18:06;;;;;;;1.50;0.80;;;;;;;18.06;100.00;99245.41;109879;1280;22287;-70
2023/10/05 10:20:35;;;;;;;1.20;0.50;;;;;;;18.43;100.00;99253.34;109808;1272;99386;-67
2023/10/05 10:23:14;;;;;;;1.10;0.50;;;;;;;18.61;100.00;99251.50;109795;1280;22891;-67
2023/10/05 10:25:43;;;;;;;3.40;0.90;;;;;;;19.43;100.00;99256.91;109765;1280;99931;-69
2023/10/05 10:28:16;;;;;;;3.20;1.40;;;;;;;19.53;99.63;99257.60;109790;1282;23198;-64
2023/10/05 10:31:07;;;;;;;4.40;1.20;;;;;;;20.13;99.88;99258.74;109850;1280;22921;-67
2023/10/05 10:33:37;;;;;;;0.70;0.40;;;;;;;20.14;98.43;99267.80;109767;1280;24054;-63
2023/10/05 10:36:22;;;;;;;1.30;0.70;;;;;;;19.89;97.41;99258.38;109775;1280;22311;-64
2023/10/05 10:38:54;;;;;;;1.50;0.60;;;;;;;19.34;97.06;99248.08;109585;1283;99969;-61
2023/10/05 10:41:30;;;;;;;1.30;0.70;;;;;;;18.77;96.74;99238.86;109830;1279;23064;-61
2023/10/05 10:44:02;;;;;;;1.40;0.90;;;;;;;18.73;97.51;99235.54;109749;1270;99299;-61
2023/10/05 10:46:34;;;;;;;2.50;0.70;;;;;;;18.98;98.32;99242.48;109837;1280;22881;-60
2023/10/05 10:49:07;;;;;;;1.60;1.00;;;;;;;21.14;100.00;99241.87;109740;1280;101235;-61
2023/10/05 10:51:38;;;;;;;2.20;0.90;;;;;;;24.08;99.94;99239.19;109876;1279;22169;-61
2023/10/05 10:54:14;;;;;;;2.50;0.90;;;;;;;25.48;96.00;99241.64;109826;1280;23014;-61
2023/10/05 10:56:44;;;;;;;1.00;0.30;;;;;;;24.79;92.29;99232.23;109736;1280;99176;-62
2023/10/05 10:59:20;;;;;;;2.30;1.00;;;;;;;23.18;89.98;99245.79;109839;1280;23058;-61
2023/10/05 11:01:53;;;;;;;1.30;0.60;;;;;;;21.48;88.23;99258.05;109737;1280;100578;-61
2023/10/05 11:04:33;;;;;;;1.50;0.50;;;;;;;20.44;89.75;99265.18;109788;1286;22295;-61
2023/10/05 11:07:22;;;;;;;1.20;0.60;;;;;;;21.48;88.96;99257.73;109790;1280;99899;-61
2023/10/05 11:09:52;;;;;;;1.10;0.60;;;;;;;21.72;87.99;99262.98;109836;1279;28333;-61
2023/10/05 11:12:22;;;;;;;1.90;0.60;;;;;;;21.55;86.69;99262.89;109739;1280;22125;-61
2023/10/05 11:15:08;;;;;;;2.00;0.70;;;;;;;20.94;86.69;99268.54;109719;1280;100121;-61
2023/10/05 11:17:45;;;;;;;3.50;0.90;;;;;;;23.29;89.96;99263.90;109812;1280;22127;-62
2023/10/05 11:20:24;;;;;;;1.80;0.40;;;;;;;26.50;90.07;99264.44;109756;1279;100183;-63
2023/10/05 11:23:01;;;;;;;1.40;0.50;;;;;;;29.18;85.55;99260.07;109869;1280;22206;-63
2023/10/05 11:25:44;;;;;;;3.10;0.60;;;;;;;30.68;83.43;99260.06;109749;1280;100272;-62
2023/10/05 11:28:25;;;;;;;2.00;0.70;;;;;;;32.28;80.44;99270.50;109853;1280;22627;-63
2023/10/05 11:30:54;;;;;;;2.80;1.30;;;;;;;33.50;77.83;99271.48;109772;1280;99842;-60
2023/10/05 11:33:44;;;;;;;3.40;0.90;;;;;;;34.29;72.86;99270.81;109890;1279;22784;-61
2023/10/05 11:36:39;;;;;;;1.50;0.70;;;;;;;33.94;69.55;99264.50;109888;1286;22256;-62
2023/10/05 11:39:26;;;;;;;1.40;0.60;;;;;;;34.57;65.63;99268.12;109825;1283;99010;-62
2023/10/05 11:41:58;;;;;;;1.20;0.60;;;;;;;32.19;59.38;99266.87;109884;1267;22042;-63
2023/10/05 11:44:28;;;;;;;6.30;1.10;;;;;;;29.77;57.89;99267.69;109791;1273;99197;-61
2023/10/05 11:46:59;;;;;;;1.50;0.70;;;;;;;28.91;56.97;99270.02;109881;1280;22045;-62
2023/10/05 11:49:31;;;;;;;1.20;0.40;;;;;;;29.83;54.52;99268.41;109786;1283;99503;-62
2023/10/05 11:52:00;;;;;;;1.40;0.50;;;;;;;30.41;52.45;99278.46;109830;1280;22438;-62
2023/10/05 11:54:33;;;;;;;2.90;0.50;;;;;;;29.70;46.28;99259.11;109797;1280;22306;-64
2023/10/05 11:57:05;;;;;;;1.20;0.40;;;;;;;27.91;45.91;99276.36;109553;1282;99640;-61
2023/10/05 11:59:36;;;;;;;1.00;0.40;;;;;;;26.67;45.76;99275.34;109830;1278;23086;-60
2023/10/05 12:02:08;;;;;;;1.10;0.50;;;;;;;25.47;44.69;99290.88;109775;1279;100056;-59
2023/10/05 12:04:39;;;;;;;3.10;0.80;;;;;;;24.12;43.96;99288.67;109860;1279;22149;-59
2023/10/05 12:07:12;;;;;;;2.10;0.70;;;;;;;23.90;44.62;99290.22;109509;1279;99881;-59
2023/10/05 12:09:44;;;;;;;1.00;0.50;;;;;;;25.01;44.50;99293.34;109822;1281;22283;-59
2023/10/05 12:12:14;;;;;;;2.80;1.20;;;;;;;24.27;43.44;99297.05;109856;1285;22294;-59
2023/10/05 12:14:42;;;;;;;1.60;0.80;;;;;;;22.92;43.59;99298.23;109758;1280;99748;-60
2023/10/05 12:17:16;;;;;;;3.90;0.70;;;;;;;21.84;43.51;99312.70;109871;1280;22419;-60